< < Back
Terminal Aerodrome Forecast


Current Version              Previous Versions:   1  2  3  4  5  6  7  8  9  

Terminal Aerodrome Forecast

514
FTUS42 KCHS 241500 AAA
TAFCHS
TAF AMD
KCHS 241543Z 2416/2512 VRB03KT P6SM SCT250=



Latest METAR

644
SAUS80 KWBC 250400
MTRCHS
METAR KCHS 250356Z 00000KT 10SM SCT150 14/11 A3001 RMK AO2 SLP160
T01440106


USA.gov is the U.S. government's official web portal to all federal, state and local government web resources and services.